メインページ
METAR-TAF:

METAR-TAF

空港 :

アルアイン国際空港

アル・アイン, アラブ首長国連邦

緯度: 24-16N, 経度: 055-36E, 海抜: 265m

現時点の気象観測

当レポートは23分前の01:00(UTC)に作成
の風 8kt
気温 31°C
湿度 22%
気圧 1009 hPa
視程10km以上
1,500メートル以下は雲なし、積乱雲なし

METAR: OMAL 250100Z 17008KT CAVOK 31/07 Q1009 NOSIG

時間: 05:23 (01:23 UTC)

予報

当レポートは2時間23分前の23:00(UTC)に作成
予報は25日の 00時(UTC)から 26日の 06時(UTC)まで有効
の風 4kt
視程: 8000m
確率 30% :
25日の 04時(UTC)から 25日の 08時(UTC)まで一時的に
南西の風 17kt
視程: 3500m
風塵
25日の 08時(UTC)から 25日の 10時(UTC)まで徐々に
西の風 12kt
25日の 13時(UTC)から 25日の 15時(UTC)まで徐々に
北/北西の風 8kt
25日の 21時(UTC)から 25日の 23時(UTC)まで徐々に
東/南東の風 6kt
26日の 03時(UTC)から 26日の 05時(UTC)まで徐々に
の風 10kt

TAF: OMAL 242300Z 2500/2606 18004KT 8000 NSC PROB30 TEMPO 2504/2508 23017KT 3500 BLDU BECMG 2508/2510 27012KT BECMG 2513/2515 33008KT BECMG 2521/2523 12006KT BECMG 2603/2605 19010KT

4,000以上の空港の気象観測と天気予報(METAR報とTAF報)

利用可能な観測所は地図上に黄色い丸と赤い丸で示す。

丸の上にカーソルを重ねると観測所名を参照できる。

次にクリックすると気象観測と天気予報を参照できる。

マップの切り替え:黒色「×」印の緑ボタンをクリックして拡大、「-」印の緑ボタンをクリックして縮小、緑色の三角印をクリックして隣りの地図に切り替え


METAR-TAF: